sensor_id;sensor_type;location;lat;lon;timestamp;pressure;altitude;pressure_sealevel;temperature;humidity
79309;BME280;68767;53.078;7.386;2024-01-27T00:01:29;103432.53;;;3.12;100.00
79309;BME280;68767;53.078;7.386;2024-01-27T00:03:56;103440.69;;;3.10;100.00
79309;BME280;68767;53.078;7.386;2024-01-27T00:06:23;103434.16;;;3.06;100.00
79309;BME280;68767;53.078;7.386;2024-01-27T00:08:50;103436.19;;;3.04;100.00
79309;BME280;68767;53.078;7.386;2024-01-27T00:11:17;103437.00;;;3.04;100.00
79309;BME280;68767;53.078;7.386;2024-01-27T00:13:45;103449.25;;;3.05;100.00
79309;BME280;68767;53.078;7.386;2024-01-27T00:16:12;103447.63;;;3.04;100.00
79309;BME280;68767;53.078;7.386;2024-01-27T00:18:39;103447.44;;;2.99;100.00
79309;BME280;68767;53.078;7.386;2024-01-27T00:21:06;103451.69;;;2.94;100.00
79309;BME280;68767;53.078;7.386;2024-01-27T00:23:34;103453.56;;;3.00;100.00
79309;BME280;68767;53.078;7.386;2024-01-27T00:26:04;103466.63;;;3.01;100.00
79309;BME280;68767;53.078;7.386;2024-01-27T00:28:31;103452.09;;;2.97;100.00
79309;BME280;68767;53.078;7.386;2024-01-27T00:30:57;103461.72;;;2.98;100.00
79309;BME280;68767;53.078;7.386;2024-01-27T00:33:24;103452.13;;;2.91;100.00
79309;BME280;68767;53.078;7.386;2024-01-27T00:35:51;103456.19;;;2.93;100.00
79309;BME280;68767;53.078;7.386;2024-01-27T00:38:18;103469.69;;;2.92;100.00
79309;BME280;68767;53.078;7.386;2024-01-27T00:40:45;103479.69;;;2.90;100.00
79309;BME280;68767;53.078;7.386;2024-01-27T00:43:12;103474.34;;;2.83;100.00
79309;BME280;68767;53.078;7.386;2024-01-27T00:45:39;103463.91;;;2.75;100.00
79309;BME280;68767;53.078;7.386;2024-01-27T00:48:06;103473.06;;;2.72;100.00
79309;BME280;68767;53.078;7.386;2024-01-27T00:50:33;103474.72;;;2.73;100.00
79309;BME280;68767;53.078;7.386;2024-01-27T00:53:00;103483.50;;;2.74;100.00
79309;BME280;68767;53.078;7.386;2024-01-27T00:55:27;103481.66;;;2.74;100.00
79309;BME280;68767;53.078;7.386;2024-01-27T00:57:54;103482.25;;;2.70;100.00
79309;BME280;68767;53.078;7.386;2024-01-27T01:00:21;103479.78;;;2.62;100.00
79309;BME280;68767;53.078;7.386;2024-01-27T01:02:48;103481.19;;;2.58;100.00
79309;BME280;68767;53.078;7.386;2024-01-27T01:05:15;103495.09;;;2.60;100.00
79309;BME280;68767;53.078;7.386;2024-01-27T01:07:42;103489.34;;;2.56;100.00
79309;BME280;68767;53.078;7.386;2024-01-27T01:10:09;103497.91;;;2.51;100.00
79309;BME280;68767;53.078;7.386;2024-01-27T01:12:36;103496.06;;;2.52;100.00
79309;BME280;68767;53.078;7.386;2024-01-27T01:15:04;103497.28;;;2.56;100.00
79309;BME280;68767;53.078;7.386;2024-01-27T01:17:31;103498.97;;;2.57;100.00
79309;BME280;68767;53.078;7.386;2024-01-27T01:19:58;103493.44;;;2.59;100.00
79309;BME280;68767;53.078;7.386;2024-01-27T01:22:25;103492.63;;;2.58;100.00
79309;BME280;68767;53.078;7.386;2024-01-27T01:24:52;103485.69;;;2.57;100.00
79309;BME280;68767;53.078;7.386;2024-01-27T01:27:19;103493.22;;;2.53;100.00
79309;BME280;68767;53.078;7.386;2024-01-27T01:29:47;103493.00;;;2.48;100.00
79309;BME280;68767;53.078;7.386;2024-01-27T01:32:14;103495.66;;;2.48;100.00
79309;BME280;68767;53.078;7.386;2024-01-27T01:34:42;103504.44;;;2.49;100.00
79309;BME280;68767;53.078;7.386;2024-01-27T01:37:09;103498.09;;;2.50;100.00
79309;BME280;68767;53.078;7.386;2024-01-27T01:39:36;103504.38;;;2.42;100.00
79309;BME280;68767;53.078;7.386;2024-01-27T01:42:03;103494.78;;;2.41;100.00
79309;BME280;68767;53.078;7.386;2024-01-27T01:44:31;103502.38;;;2.51;100.00
79309;BME280;68767;53.078;7.386;2024-01-27T01:46:58;103506.63;;;2.45;100.00
79309;BME280;68767;53.078;7.386;2024-01-27T01:49:26;103500.50;;;2.45;100.00
79309;BME280;68767;53.078;7.386;2024-01-27T01:51:53;103508.69;;;2.43;100.00
79309;BME280;68767;53.078;7.386;2024-01-27T01:54:20;103513.22;;;2.49;100.00
79309;BME280;68767;53.078;7.386;2024-01-27T01:56:49;103518.69;;;2.48;100.00
79309;BME280;68767;53.078;7.386;2024-01-27T01:59:17;103522.78;;;2.50;100.00
79309;BME280;68767;53.078;7.386;2024-01-27T02:01:44;103523.00;;;2.49;100.00
79309;BME280;68767;53.078;7.386;2024-01-27T02:04:12;103518.88;;;2.46;100.00
79309;BME280;68767;53.078;7.386;2024-01-27T02:06:39;103520.91;;;2.44;100.00
79309;BME280;68767;53.078;7.386;2024-01-27T02:09:06;103511.72;;;2.40;100.00
79309;BME280;68767;53.078;7.386;2024-01-27T02:11:33;103504.59;;;2.41;100.00
79309;BME280;68767;53.078;7.386;2024-01-27T02:14:00;103507.03;;;2.42;100.00
79309;BME280;68767;53.078;7.386;2024-01-27T02:16:27;103506.03;;;2.43;100.00
79309;BME280;68767;53.078;7.386;2024-01-27T02:18:54;103521.69;;;2.38;100.00
79309;BME280;68767;53.078;7.386;2024-01-27T02:21:21;103517.00;;;2.34;100.00
79309;BME280;68767;53.078;7.386;2024-01-27T02:23:48;103526.59;;;2.35;100.00
79309;BME280;68767;53.078;7.386;2024-01-27T02:26:16;103530.25;;;2.34;100.00
79309;BME280;68767;53.078;7.386;2024-01-27T02:28:42;103523.13;;;2.34;100.00
79309;BME280;68767;53.078;7.386;2024-01-27T02:31:09;103525.72;;;2.28;100.00
79309;BME280;68767;53.078;7.386;2024-01-27T02:33:36;103518.16;;;2.24;100.00
79309;BME280;68767;53.078;7.386;2024-01-27T02:36:04;103522.19;;;2.20;100.00
79309;BME280;68767;53.078;7.386;2024-01-27T02:38:32;103529.34;;;2.20;100.00
79309;BME280;68767;53.078;7.386;2024-01-27T02:40:59;103530.34;;;2.19;100.00
79309;BME280;68767;53.078;7.386;2024-01-27T02:43:26;103526.06;;;2.18;100.00
79309;BME280;68767;53.078;7.386;2024-01-27T02:45:53;103526.63;;;2.13;100.00
79309;BME280;68767;53.078;7.386;2024-01-27T02:48:20;103521.13;;;2.15;100.00
79309;BME280;68767;53.078;7.386;2024-01-27T02:50:47;103528.72;;;2.18;100.00
79309;BME280;68767;53.078;7.386;2024-01-27T02:53:14;103525.19;;;2.11;100.00
79309;BME280;68767;53.078;7.386;2024-01-27T02:55:42;103531.72;;;2.08;100.00
79309;BME280;68767;53.078;7.386;2024-01-27T02:58:08;103532.91;;;2.06;100.00
79309;BME280;68767;53.078;7.386;2024-01-27T03:00:35;103540.44;;;2.02;100.00
79309;BME280;68767;53.078;7.386;2024-01-27T03:03:03;103547.38;;;2.03;100.00
79309;BME280;68767;53.078;7.386;2024-01-27T03:05:30;103536.56;;;2.05;100.00
79309;BME280;68767;53.078;7.386;2024-01-27T03:07:57;103545.53;;;2.04;100.00
79309;BME280;68767;53.078;7.386;2024-01-27T03:10:24;103538.81;;;2.01;100.00
79309;BME280;68767;53.078;7.386;2024-01-27T03:12:52;103533.44;;;1.94;100.00
79309;BME280;68767;53.078;7.386;2024-01-27T03:15:20;103521.41;;;1.92;100.00
79309;BME280;68767;53.078;7.386;2024-01-27T03:17:47;103535.06;;;1.95;100.00
79309;BME280;68767;53.078;7.386;2024-01-27T03:20:15;103532.22;;;1.97;100.00
79309;BME280;68767;53.078;7.386;2024-01-27T03:22:42;103520.81;;;1.96;100.00
79309;BME280;68767;53.078;7.386;2024-01-27T03:25:10;103529.00;;;2.02;100.00
79309;BME280;68767;53.078;7.386;2024-01-27T03:27:40;103522.50;;;2.04;100.00
79309;BME280;68767;53.078;7.386;2024-01-27T03:30:07;103523.31;;;2.05;100.00
79309;BME280;68767;53.078;7.386;2024-01-27T03:32:34;103521.44;;;1.98;100.00
79309;BME280;68767;53.078;7.386;2024-01-27T03:35:02;103522.44;;;1.97;100.00
79309;BME280;68767;53.078;7.386;2024-01-27T03:37:29;103521.88;;;2.02;100.00
79309;BME280;68767;53.078;7.386;2024-01-27T03:39:56;103520.44;;;2.00;100.00
79309;BME280;68767;53.078;7.386;2024-01-27T03:42:23;103516.56;;;2.02;100.00
79309;BME280;68767;53.078;7.386;2024-01-27T03:44:51;103515.38;;;2.05;100.00
79309;BME280;68767;53.078;7.386;2024-01-27T03:47:18;103521.72;;;2.10;100.00
79309;BME280;68767;53.078;7.386;2024-01-27T03:49:45;103521.28;;;2.07;100.00
79309;BME280;68767;53.078;7.386;2024-01-27T03:52:13;103531.72;;;2.08;100.00
79309;BME280;68767;53.078;7.386;2024-01-27T03:54:39;103524.25;;;2.18;100.00
79309;BME280;68767;53.078;7.386;2024-01-27T03:57:06;103531.56;;;2.16;100.00
79309;BME280;68767;53.078;7.386;2024-01-27T03:59:33;103527.47;;;2.14;100.00
79309;BME280;68767;53.078;7.386;2024-01-27T04:02:00;103528.41;;;2.06;100.00
79309;BME280;68767;53.078;7.386;2024-01-27T04:04:27;103529.25;;;2.07;100.00
79309;BME280;68767;53.078;7.386;2024-01-27T04:06:54;103528.63;;;2.05;100.00
79309;BME280;68767;53.078;7.386;2024-01-27T04:09:21;103520.03;;;2.03;100.00
79309;BME280;68767;53.078;7.386;2024-01-27T04:11:48;103532.47;;;2.02;100.00
79309;BME280;68767;53.078;7.386;2024-01-27T04:14:15;103537.03;;;2.08;100.00
79309;BME280;68767;53.078;7.386;2024-01-27T04:16:42;103538.22;;;2.06;100.00
79309;BME280;68767;53.078;7.386;2024-01-27T04:19:09;103543.50;;;2.06;100.00
79309;BME280;68767;53.078;7.386;2024-01-27T04:21:36;103546.81;;;2.08;100.00
79309;BME280;68767;53.078;7.386;2024-01-27T04:24:03;103528.41;;;2.06;100.00
79309;BME280;68767;53.078;7.386;2024-01-27T04:26:30;103536.22;;;2.08;100.00
79309;BME280;68767;53.078;7.386;2024-01-27T04:28:57;103538.66;;;2.09;100.00
79309;BME280;68767;53.078;7.386;2024-01-27T04:31:24;103527.25;;;2.09;100.00
79309;BME280;68767;53.078;7.386;2024-01-27T04:33:51;103541.06;;;2.04;100.00
79309;BME280;68767;53.078;7.386;2024-01-27T04:36:30;103542.50;;;2.07;100.00
79309;BME280;68767;53.078;7.386;2024-01-27T04:38:57;103543.50;;;2.06;100.00
79309;BME280;68767;53.078;7.386;2024-01-27T04:41:24;103542.06;;;2.03;100.00
79309;BME280;68767;53.078;7.386;2024-01-27T04:43:51;103552.47;;;2.05;100.00
79309;BME280;68767;53.078;7.386;2024-01-27T04:46:19;103547.56;;;2.02;100.00
79309;BME280;68767;53.078;7.386;2024-01-27T04:48:47;103542.06;;;2.03;100.00
79309;BME280;68767;53.078;7.386;2024-01-27T04:51:14;103538.19;;;1.99;100.00
79309;BME280;68767;53.078;7.386;2024-01-27T04:53:41;103538.81;;;2.01;100.00
79309;BME280;68767;53.078;7.386;2024-01-27T04:56:08;103537.34;;;1.98;100.00
79309;BME280;68767;53.078;7.386;2024-01-27T04:58:36;103534.50;;;2.00;100.00
79309;BME280;68767;53.078;7.386;2024-01-27T05:01:03;103546.69;;;1.94;100.00
79309;BME280;68767;53.078;7.386;2024-01-27T05:03:30;103542.88;;;2.04;100.00
79309;BME280;68767;53.078;7.386;2024-01-27T05:05:58;103552.94;;;2.08;100.00
79309;BME280;68767;53.078;7.386;2024-01-27T05:08:24;103548.81;;;2.06;100.00
79309;BME280;68767;53.078;7.386;2024-01-27T05:10:51;103546.16;;;2.06;100.00
79309;BME280;68767;53.078;7.386;2024-01-27T05:13:22;103545.41;;;2.12;100.00
79309;BME280;68767;53.078;7.386;2024-01-27T05:15:49;103546.41;;;2.11;100.00
79309;BME280;68767;53.078;7.386;2024-01-27T05:18:16;103545.66;;;2.17;100.00
79309;BME280;68767;53.078;7.386;2024-01-27T05:20:44;103545.88;;;2.22;100.00
79309;BME280;68767;53.078;7.386;2024-01-27T05:23:10;103547.34;;;2.24;100.00
79309;BME280;68767;53.078;7.386;2024-01-27T05:25:37;103552.41;;;2.19;100.00
79309;BME280;68767;53.078;7.386;2024-01-27T05:28:06;103540.75;;;2.20;100.00
79309;BME280;68767;53.078;7.386;2024-01-27T05:30:33;103540.34;;;2.17;100.00
79309;BME280;68767;53.078;7.386;2024-01-27T05:33:00;103548.50;;;2.15;100.00
79309;BME280;68767;53.078;7.386;2024-01-27T05:35:27;103547.03;;;2.13;100.00
79309;BME280;68767;53.078;7.386;2024-01-27T05:37:54;103543.38;;;2.14;100.00
79309;BME280;68767;53.078;7.386;2024-01-27T05:40:21;103545.84;;;2.15;100.00
79309;BME280;68767;53.078;7.386;2024-01-27T05:42:48;103546.16;;;2.06;100.00
79309;BME280;68767;53.078;7.386;2024-01-27T05:45:15;103536.22;;;2.08;100.00
79309;BME280;68767;53.078;7.386;2024-01-27T05:47:43;103545.34;;;2.05;100.00
79309;BME280;68767;53.078;7.386;2024-01-27T05:50:10;103555.28;;;1.96;100.00
79309;BME280;68767;53.078;7.386;2024-01-27T05:52:37;103551.81;;;1.96;100.00
79309;BME280;68767;53.078;7.386;2024-01-27T05:55:04;103558.75;;;1.97;100.00
79309;BME280;68767;53.078;7.386;2024-01-27T05:57:33;103569.53;;;1.95;100.00
79309;BME280;68767;53.078;7.386;2024-01-27T06:00:00;103563.41;;;1.95;100.00
79309;BME280;68767;53.078;7.386;2024-01-27T06:02:30;103573.22;;;1.94;100.00
79309;BME280;68767;53.078;7.386;2024-01-27T06:04:57;103579.25;;;1.88;100.00
79309;BME280;68767;53.078;7.386;2024-01-27T06:07:24;103575.84;;;1.94;100.00
79309;BME280;68767;53.078;7.386;2024-01-27T06:09:51;103573.97;;;1.88;100.00
79309;BME280;68767;53.078;7.386;2024-01-27T06:12:18;103586.19;;;1.89;100.00
79309;BME280;68767;53.078;7.386;2024-01-27T06:14:45;103590.88;;;1.87;100.00
79309;BME280;68767;53.078;7.386;2024-01-27T06:17:13;103583.31;;;1.84;100.00
79309;BME280;68767;53.078;7.386;2024-01-27T06:19:41;103584.19;;;1.91;100.00
79309;BME280;68767;53.078;7.386;2024-01-27T06:22:08;103582.94;;;1.87;100.00
79309;BME280;68767;53.078;7.386;2024-01-27T06:24:41;103578.03;;;1.84;100.00
79309;BME280;68767;53.078;7.386;2024-01-27T06:27:08;103590.81;;;1.81;100.00
79309;BME280;68767;53.078;7.386;2024-01-27T06:29:35;103588.75;;;1.76;100.00
79309;BME280;68767;53.078;7.386;2024-01-27T06:32:02;103593.44;;;1.74;100.00
79309;BME280;68767;53.078;7.386;2024-01-27T06:34:31;103598.88;;;1.73;100.00
79309;BME280;68767;53.078;7.386;2024-01-27T06:36:58;103593.97;;;1.69;100.00
79309;BME280;68767;53.078;7.386;2024-01-27T06:39:26;103596.63;;;1.69;100.00
79309;BME280;68767;53.078;7.386;2024-01-27T06:41:53;103592.91;;;1.64;100.00
79309;BME280;68767;53.078;7.386;2024-01-27T06:44:20;103609.06;;;1.69;100.00
79309;BME280;68767;53.078;7.386;2024-01-27T06:46:47;103604.78;;;1.68;100.00
79309;BME280;68767;53.078;7.386;2024-01-27T06:49:16;103605.41;;;1.70;100.00
79309;BME280;68767;53.078;7.386;2024-01-27T06:51:44;103607.84;;;1.72;100.00
79309;BME280;68767;53.078;7.386;2024-01-27T06:54:10;103609.50;;;1.73;100.00
79309;BME280;68767;53.078;7.386;2024-01-27T06:56:37;103605.41;;;1.70;100.00
79309;BME280;68767;53.078;7.386;2024-01-27T06:59:05;103612.16;;;1.73;100.00
79309;BME280;68767;53.078;7.386;2024-01-27T07:01:32;103607.22;;;1.69;100.00
79309;BME280;68767;53.078;7.386;2024-01-27T07:03:59;103601.50;;;1.66;100.00
79309;BME280;68767;53.078;7.386;2024-01-27T07:06:26;103608.06;;;1.70;100.00
79309;BME280;68767;53.078;7.386;2024-01-27T07:08:53;103613.97;;;1.72;100.00
79309;BME280;68767;53.078;7.386;2024-01-27T07:11:20;103611.72;;;1.69;100.00
79309;BME280;68767;53.078;7.386;2024-01-27T07:13:47;103609.31;;;1.74;100.00
79309;BME280;68767;53.078;7.386;2024-01-27T07:16:14;103611.31;;;1.72;100.00
79309;BME280;68767;53.078;7.386;2024-01-27T07:18:41;103608.88;;;1.71;100.00
79309;BME280;68767;53.078;7.386;2024-01-27T07:21:08;103611.78;;;1.76;100.00
79309;BME280;68767;53.078;7.386;2024-01-27T07:23:41;103612.03;;;1.81;100.00
79309;BME280;68767;53.078;7.386;2024-01-27T07:26:09;103611.00;;;1.82;100.00
79309;BME280;68767;53.078;7.386;2024-01-27T07:28:37;103618.78;;;1.83;100.00
79309;BME280;68767;53.078;7.386;2024-01-27T07:31:08;103615.56;;;1.88;100.00
79309;BME280;68767;53.078;7.386;2024-01-27T07:33:35;103615.56;;;1.88;100.00
79309;BME280;68767;53.078;7.386;2024-01-27T07:36:02;103633.56;;;1.92;100.00
79309;BME280;68767;53.078;7.386;2024-01-27T07:38:29;103628.47;;;1.97;100.00
79309;BME280;68767;53.078;7.386;2024-01-27T07:40:57;103639.16;;;2.04;100.00
79309;BME280;68767;53.078;7.386;2024-01-27T07:43:25;103641.25;;;2.09;100.00
79309;BME280;68767;53.078;7.386;2024-01-27T07:45:53;103636.31;;;2.06;100.00
79309;BME280;68767;53.078;7.386;2024-01-27T07:48:21;103640.03;;;2.11;100.00
79309;BME280;68767;53.078;7.386;2024-01-27T07:50:49;103632.91;;;2.12;100.00
79309;BME280;68767;53.078;7.386;2024-01-27T07:53:17;103633.34;;;2.15;100.00
79309;BME280;68767;53.078;7.386;2024-01-27T07:55:44;103636.25;;;2.20;100.00
79309;BME280;68767;53.078;7.386;2024-01-27T07:58:11;103632.38;;;2.23;100.00
79309;BME280;68767;53.078;7.386;2024-01-27T08:00:38;103631.56;;;2.22;100.00
79309;BME280;68767;53.078;7.386;2024-01-27T08:03:06;103631.56;;;2.22;100.00
79309;BME280;68767;53.078;7.386;2024-01-27T08:05:33;103632.06;;;2.33;100.00
79309;BME280;68767;53.078;7.386;2024-01-27T08:08:01;103634.53;;;2.34;100.00
79309;BME280;68767;53.078;7.386;2024-01-27T08:10:28;103626.38;;;2.36;100.00
79309;BME280;68767;53.078;7.386;2024-01-27T08:12:58;103639.44;;;2.37;100.00
79309;BME280;68767;53.078;7.386;2024-01-27T08:15:25;103636.22;;;2.42;100.00
79309;BME280;68767;53.078;7.386;2024-01-27T08:17:52;103639.69;;;2.42;100.00
79309;BME280;68767;53.078;7.386;2024-01-27T08:20:19;103647.69;;;2.49;100.00
79309;BME280;68767;53.078;7.386;2024-01-27T08:22:47;103639.75;;;2.49;100.00
79309;BME280;68767;53.078;7.386;2024-01-27T08:25:22;103638.13;;;2.54;100.00
79309;BME280;68767;53.078;7.386;2024-01-27T08:27:52;103648.41;;;2.64;100.00
79309;BME280;68767;53.078;7.386;2024-01-27T08:30:19;103662.53;;;2.71;100.00
79309;BME280;68767;53.078;7.386;2024-01-27T08:32:46;103651.97;;;2.78;100.00
79309;BME280;68767;53.078;7.386;2024-01-27T08:35:13;103669.56;;;2.86;100.00
79309;BME280;68767;53.078;7.386;2024-01-27T08:37:40;103672.28;;;2.92;100.00
79309;BME280;68767;53.078;7.386;2024-01-27T08:40:08;103675.97;;;2.98;100.00
79309;BME280;68767;53.078;7.386;2024-01-27T08:42:35;103677.28;;;3.08;100.00
79309;BME280;68767;53.078;7.386;2024-01-27T08:45:02;103674.22;;;3.12;100.00
79309;BME280;68767;53.078;7.386;2024-01-27T08:47:30;103670.38;;;3.21;100.00
79309;BME280;68767;53.078;7.386;2024-01-27T08:49:57;103666.38;;;3.31;100.00
79309;BME280;68767;53.078;7.386;2024-01-27T08:52:25;103681.53;;;3.44;100.00
79309;BME280;68767;53.078;7.386;2024-01-27T08:54:51;103677.63;;;3.47;100.00
79309;BME280;68767;53.078;7.386;2024-01-27T08:57:18;103690.97;;;3.60;100.00
79309;BME280;68767;53.078;7.386;2024-01-27T08:59:45;103678.75;;;3.65;100.00
79309;BME280;68767;53.078;7.386;2024-01-27T09:02:12;103671.41;;;3.74;100.00
79309;BME280;68767;53.078;7.386;2024-01-27T09:04:39;103684.72;;;3.81;100.00
79309;BME280;68767;53.078;7.386;2024-01-27T09:07:07;103681.66;;;3.90;100.00
79309;BME280;68767;53.078;7.386;2024-01-27T09:09:34;103676.56;;;4.02;100.00
79309;BME280;68767;53.078;7.386;2024-01-27T09:12:01;103671.47;;;4.14;100.00
79309;BME280;68767;53.078;7.386;2024-01-27T09:14:29;103664.31;;;4.14;100.00
79309;BME280;68767;53.078;7.386;2024-01-27T09:16:56;103658.38;;;4.19;100.00
79309;BME280;68767;53.078;7.386;2024-01-27T09:19:23;103656.31;;;4.21;100.00
79309;BME280;68767;53.078;7.386;2024-01-27T09:21:50;103655.50;;;4.20;100.00
79309;BME280;68767;53.078;7.386;2024-01-27T09:24:17;103656.31;;;4.28;100.00
79309;BME280;68767;53.078;7.386;2024-01-27T09:26:44;103657.16;;;4.35;100.00
79309;BME280;68767;53.078;7.386;2024-01-27T09:29:11;103660.63;;;4.55;100.00
79309;BME280;68767;53.078;7.386;2024-01-27T09:31:38;103653.44;;;4.69;100.00
79309;BME280;68767;53.078;7.386;2024-01-27T09:34:05;103649.28;;;4.79;100.00
79309;BME280;68767;53.078;7.386;2024-01-27T09:36:32;103637.44;;;4.75;100.00
79309;BME280;68767;53.078;7.386;2024-01-27T09:39:00;103645.81;;;4.79;100.00
79309;BME280;68767;53.078;7.386;2024-01-27T09:41:30;103647.03;;;4.90;100.00
79309;BME280;68767;53.078;7.386;2024-01-27T09:44:02;103643.50;;;5.02;100.00
79309;BME280;68767;53.078;7.386;2024-01-27T09:46:31;103643.06;;;5.12;100.00
79309;BME280;68767;53.078;7.386;2024-01-27T09:48:58;103641.03;;;5.14;100.00
79309;BME280;68767;53.078;7.386;2024-01-27T09:51:25;103652.50;;;5.08;100.00
79309;BME280;68767;53.078;7.386;2024-01-27T09:53:53;103650.88;;;5.07;100.00
79309;BME280;68767;53.078;7.386;2024-01-27T09:56:20;103655.75;;;5.17;100.00
79309;BME280;68767;53.078;7.386;2024-01-27T09:58:50;103648.16;;;5.20;100.00
79309;BME280;68767;53.078;7.386;2024-01-27T10:01:17;103659.03;;;5.19;100.00
79309;BME280;68767;53.078;7.386;2024-01-27T10:03:46;103660.84;;;5.31;100.00
79309;BME280;68767;53.078;7.386;2024-01-27T10:06:14;103663.50;;;5.31;100.00
79309;BME280;68767;53.078;7.386;2024-01-27T10:08:48;103664.66;;;5.49;100.00
79309;BME280;68767;53.078;7.386;2024-01-27T10:11:19;103657.84;;;5.53;100.00
79309;BME280;68767;53.078;7.386;2024-01-27T10:13:57;103656.31;;;5.39;100.00
79309;BME280;68767;53.078;7.386;2024-01-27T10:16:27;103658.09;;;5.45;100.00
79309;BME280;68767;53.078;7.386;2024-01-27T10:19:04;103663.59;;;5.56;100.00
79309;BME280;68767;53.078;7.386;2024-01-27T10:21:31;103648.63;;;5.55;100.00
79309;BME280;68767;53.078;7.386;2024-01-27T10:23:59;103653.88;;;5.69;100.00
79309;BME280;68767;53.078;7.386;2024-01-27T10:26:30;103652.44;;;5.66;100.00
79309;BME280;68767;53.078;7.386;2024-01-27T10:28:58;103642.34;;;5.75;100.00
79309;BME280;68767;53.078;7.386;2024-01-27T10:31:28;103642.69;;;5.91;100.00
79309;BME280;68767;53.078;7.386;2024-01-27T10:33:56;103641.00;;;5.97;100.00
79309;BME280;68767;53.078;7.386;2024-01-27T10:36:25;103644.31;;;5.93;100.00
79309;BME280;68767;53.078;7.386;2024-01-27T10:38:55;103646.00;;;6.12;100.00
79309;BME280;68767;53.078;7.386;2024-01-27T10:41:23;103650.09;;;6.14;100.00
79309;BME280;68767;53.078;7.386;2024-01-27T10:43:51;103638.72;;;6.26;100.00
79309;BME280;68767;53.078;7.386;2024-01-27T10:46:20;103649.63;;;6.24;100.00
79309;BME280;68767;53.078;7.386;2024-01-27T10:48:51;103654.41;;;6.40;100.00
79309;BME280;68767;53.078;7.386;2024-01-27T10:51:30;103647.97;;;6.48;100.00
79309;BME280;68767;53.078;7.386;2024-01-27T10:54:02;103649.41;;;6.69;100.00
79309;BME280;68767;53.078;7.386;2024-01-27T10:56:33;103646.81;;;6.62;100.00
79309;BME280;68767;53.078;7.386;2024-01-27T10:59:01;103655.19;;;6.66;100.00
79309;BME280;68767;53.078;7.386;2024-01-27T11:01:31;103647.66;;;6.81;100.00
79309;BME280;68767;53.078;7.386;2024-01-27T11:04:02;103658.09;;;7.19;100.00
79309;BME280;68767;53.078;7.386;2024-01-27T11:06:31;103654.72;;;7.42;100.00
79309;BME280;68767;53.078;7.386;2024-01-27T11:08:59;103654.31;;;7.57;100.00
79309;BME280;68767;53.078;7.386;2024-01-27T11:11:26;103646.56;;;7.37;100.00
79309;BME280;68767;53.078;7.386;2024-01-27T11:13:53;103645.63;;;7.31;100.00
79309;BME280;68767;53.078;7.386;2024-01-27T11:16:21;103658.22;;;7.43;100.00
79309;BME280;68767;53.078;7.386;2024-01-27T11:18:50;103662.19;;;7.52;100.00
79309;BME280;68767;53.078;7.386;2024-01-27T11:21:17;103657.94;;;7.32;100.00
79309;BME280;68767;53.078;7.386;2024-01-27T11:23:44;103660.19;;;7.17;100.00
79309;BME280;68767;53.078;7.386;2024-01-27T11:26:19;103655.66;;;7.18;100.00
79309;BME280;68767;53.078;7.386;2024-01-27T11:28:48;103645.97;;;7.35;100.00
79309;BME280;68767;53.078;7.386;2024-01-27T11:31:17;103646.81;;;7.17;100.00
79309;BME280;68767;53.078;7.386;2024-01-27T11:33:49;103651.28;;;7.23;100.00
79309;BME280;68767;53.078;7.386;2024-01-27T11:36:23;103651.50;;;7.22;100.00
79309;BME280;68767;53.078;7.386;2024-01-27T11:38:52;103659.03;;;7.43;100.00
79309;BME280;68767;53.078;7.386;2024-01-27T11:41:27;103661.22;;;7.65;100.00
79309;BME280;68767;53.078;7.386;2024-01-27T11:43:55;103659.91;;;7.55;100.00
79309;BME280;68767;53.078;7.386;2024-01-27T11:46:23;103660.81;;;7.79;100.00
79309;BME280;68767;53.078;7.386;2024-01-27T11:48:50;103655.69;;;7.78;100.00
79309;BME280;68767;53.078;7.386;2024-01-27T11:51:17;103655.22;;;7.81;100.00
79309;BME280;68767;53.078;7.386;2024-01-27T11:53:50;103654.75;;;7.84;100.00
79309;BME280;68767;53.078;7.386;2024-01-27T11:56:17;103652.94;;;7.96;100.00
79309;BME280;68767;53.078;7.386;2024-01-27T11:58:49;103652.94;;;7.96;100.00
79309;BME280;68767;53.078;7.386;2024-01-27T12:01:17;103647.69;;;7.89;100.00
79309;BME280;68767;53.078;7.386;2024-01-27T12:03:44;103643.13;;;7.90;100.00
79309;BME280;68767;53.078;7.386;2024-01-27T12:06:15;103648.78;;;8.12;100.00
79309;BME280;68767;53.078;7.386;2024-01-27T12:08:42;103642.78;;;7.86;100.00
79309;BME280;68767;53.078;7.386;2024-01-27T12:11:15;103640.72;;;8.00;100.00
79309;BME280;68767;53.078;7.386;2024-01-27T12:13:49;103633.25;;;7.91;100.00
79309;BME280;68767;53.078;7.386;2024-01-27T12:16:16;103631.16;;;7.93;100.00
79309;BME280;68767;53.078;7.386;2024-01-27T12:18:44;103633.88;;;8.16;100.00
79309;BME280;68767;53.078;7.386;2024-01-27T12:21:11;103634.72;;;8.40;100.00
79309;BME280;68767;53.078;7.386;2024-01-27T12:23:55;103630.59;;;8.02;100.00
79309;BME280;68767;53.078;7.386;2024-01-27T12:26:30;103627.69;;;8.15;100.00
79309;BME280;68767;53.078;7.386;2024-01-27T12:28:57;103630.84;;;8.24;100.00
79309;BME280;68767;53.078;7.386;2024-01-27T12:31:25;103626.53;;;8.23;100.00
79309;BME280;68767;53.078;7.386;2024-01-27T12:33:55;103633.75;;;8.23;100.00
79309;BME280;68767;53.078;7.386;2024-01-27T12:36:23;103634.00;;;8.21;100.00
79309;BME280;68767;53.078;7.386;2024-01-27T12:38:58;103633.41;;;8.19;100.00
79309;BME280;68767;53.078;7.386;2024-01-27T12:41:26;103634.47;;;8.30;100.00
79309;BME280;68767;53.078;7.386;2024-01-27T12:43:54;103635.88;;;8.21;100.00
79309;BME280;68767;53.078;7.386;2024-01-27T12:46:22;103633.63;;;8.06;100.00
79309;BME280;68767;53.078;7.386;2024-01-27T12:48:49;103640.50;;;8.13;100.00
79309;BME280;68767;53.078;7.386;2024-01-27T12:51:16;103644.03;;;8.49;100.00
79309;BME280;68767;53.078;7.386;2024-01-27T12:53:44;103638.69;;;8.49;100.00